Impacts METAR Board
IDs:

KBAZ - New Braunfels Muni, TX, US

Updated at: 0500 UTC 19 Aug 2019
Potential Impact None Slight Moderate High
Time 18/17Z 18/18Z 18/19Z 18/20Z 18/21Z 18/22Z 18/23Z 19/00Z 19/01Z 19/02Z 19/03Z 19/04Z 19/05Z
Temp94 94 97 100 99 101 101 98 94 91 88 85 83
Dewpt70 70 69 69 68 67 66 67 70 68 69 71 74
Altim29.91 29.89 29.88 29.86 29.83 29.82 29.81 29.81 29.82 29.85 29.88 29.91 29.94
VIS10 10 10 10 10 10 10 10 10 10 10 10 10
CIG-- -- -- -- -- 70 -- -- -- -- -- -- --
CoverCLRFEWCLRCLRFEWBKNCLRFEWCLRCLRCLRCLRCLR
FltCatVFRVFRVFRVFRVFRVFRVFRVFRVFRVFRVFRVFRVFR
WX--------------------------
WDir190190180190170160140140150160160170
WSpd14 14 12 12 11 15 10 18 17 14 7 10
WGst-- 22 19 19 -- -- -- -- -- -- 23 -- --
Raw hourly METARs
KBAZ 181651Z AUTO 19014KT 10SM CLR 34/21 A2991 RMK AO2 SLP116 T03440211 $
KBAZ 181751Z AUTO 19014G22KT 10SM FEW046 34/21 A2989 RMK AO2 SLP112 T03440211 10356 20256 58007 $
KBAZ 181851Z AUTO 18012G19KT 10SM CLR 36/21 A2988 RMK AO2 SLP106 T03610206 $
KBAZ 181951Z AUTO 19012G19KT 10SM CLR 38/21 A2986 RMK AO2 SLP099 T03780206 $
KBAZ 182051Z AUTO 10SM FEW065 37/20 A2983 RMK AO2 SLP092 T03720200 58020 $
KBAZ 182151Z AUTO 17011KT 10SM BKN070 38/19 A2982 RMK AO2 SLP085 T03830194 $
KBAZ 182251Z AUTO 16015KT 10SM CLR 38/19 A2981 RMK AO2 SLP083 T03830189 $
KBAZ 182351Z AUTO 14010KT 10SM FEW080 37/19 A2981 RMK AO2 SLP082 T03670194 10389 20344 56009 $
KBAZ 190051Z AUTO 14018KT 10SM CLR 34/21 A2982 RMK AO2 SLP088 T03440211 $
KBAZ 190151Z AUTO 15017KT 10SM CLR 33/20 A2985 RMK AO2 SLP097 T03280200 $
KBAZ 190251Z AUTO 16014G23KT 10SM CLR 31/21 A2988 RMK AO2 SLP107 T03110206 53024 $
KBAZ 190351Z AUTO 16007KT 10SM CLR 29/22 A2991 RMK AO2 SLP119 T02940217 $
KBAZ 190451Z AUTO 17010KT 10SM CLR 28/23 A2994 RMK AO2 SLP127 T02830233 $



Page loaded:  05:47 UTC  |   10:47 PM Pacific  |   11:47 PM Mountain  |   12:47 AM Central  |   01:47 AM Eastern

 

ADVISORIES

FORECASTS

FORECASTS

OBSERVATIONS

USER TOOLS

ABOUT US